createdAt,value
2022-12-03T00:00:00.756Z,8.33
2022-12-03T00:02:29.512Z,8.63
2022-12-03T00:04:56.476Z,9.03
2022-12-03T00:07:23.231Z,8.50
2022-12-03T00:09:49.948Z,8.77
2022-12-03T00:12:16.625Z,8.73
2022-12-03T00:14:45.003Z,9.20
2022-12-03T00:17:11.877Z,9.33
2022-12-03T00:19:38.776Z,9.57
2022-12-03T00:22:05.594Z,10.83
2022-12-03T00:24:32.936Z,10.40
2022-12-03T00:26:59.671Z,10.27
2022-12-03T00:29:26.383Z,10.30
2022-12-03T00:31:53.134Z,10.17
2022-12-03T00:34:19.987Z,11.30
2022-12-03T00:36:46.852Z,11.90
2022-12-03T00:39:13.557Z,11.17
2022-12-03T00:41:40.404Z,10.53
2022-12-03T00:44:07.379Z,10.87
2022-12-03T00:46:34.018Z,9.47
2022-12-03T00:49:01.162Z,10.57
2022-12-03T00:51:28.207Z,8.90
2022-12-03T00:53:54.951Z,10.13
2022-12-03T00:56:21.809Z,10.63
2022-12-03T00:58:48.557Z,10.40
2022-12-03T01:01:15.353Z,10.60
2022-12-03T01:03:42.072Z,10.67
2022-12-03T01:06:08.915Z,10.77
2022-12-03T01:08:35.807Z,11.10
2022-12-03T01:11:02.536Z,10.57
2022-12-03T01:13:29.360Z,10.30
2022-12-03T01:15:56.095Z,10.40
2022-12-03T01:18:22.870Z,8.77
2022-12-03T01:20:49.607Z,9.57
2022-12-03T01:23:16.380Z,10.40
2022-12-03T01:25:43.176Z,10.20
2022-12-03T01:28:09.976Z,10.30
2022-12-03T01:30:56.769Z,9.70
2022-12-03T01:33:23.506Z,10.47
2022-12-03T01:35:50.318Z,10.87
2022-12-03T01:38:17.170Z,10.17
2022-12-03T01:40:43.936Z,10.77
2022-12-03T01:43:10.858Z,11.50
2022-12-03T01:45:37.559Z,10.97
2022-12-03T01:48:04.396Z,10.73
2022-12-03T01:50:33.266Z,11.77
2022-12-03T01:53:03.054Z,10.00
2022-12-03T01:55:31.435Z,9.80
2022-12-03T01:58:00.884Z,10.10
2022-12-03T02:00:28.529Z,10.17
2022-12-03T02:03:00.972Z,9.80
2022-12-03T02:05:30.800Z,10.27
2022-12-03T02:07:59.220Z,9.37
2022-12-03T02:10:37.912Z,10.47
2022-12-03T02:13:10.138Z,10.20
2022-12-03T02:15:39.207Z,10.23
2022-12-03T02:18:08.250Z,9.87
2022-12-03T02:20:44.296Z,11.03
2022-12-03T02:23:35.280Z,10.73
2022-12-03T02:26:02.014Z,10.10
2022-12-03T02:28:28.889Z,10.50
2022-12-03T02:30:56.179Z,10.33
2022-12-03T02:33:22.970Z,10.60
2022-12-03T02:35:49.888Z,11.23
2022-12-03T02:38:20.325Z,11.20
2022-12-03T02:40:49.551Z,10.67
2022-12-03T02:43:18.074Z,9.23
2022-12-03T02:45:48.025Z,8.83
2022-12-03T02:48:26.295Z,7.10
2022-12-03T02:50:57.576Z,6.17
2022-12-03T02:53:31.112Z,5.77
2022-12-03T02:56:00.667Z,6.57
2022-12-03T02:58:31.286Z,6.37
2022-12-03T03:00:59.228Z,5.80
2022-12-03T03:03:28.811Z,6.70
2022-12-03T03:05:56.857Z,7.13
2022-12-03T03:08:25.553Z,6.63
2022-12-03T03:10:53.141Z,6.53
2022-12-03T03:13:21.130Z,6.73
2022-12-03T03:15:48.178Z,7.17
2022-12-03T03:18:15.923Z,6.50
2022-12-03T03:20:43.553Z,7.07
2022-12-03T03:23:17.749Z,7.30
2022-12-03T03:25:49.408Z,6.97
2022-12-03T03:28:17.123Z,7.60
2022-12-03T03:30:44.985Z,7.77
2022-12-03T03:33:13.217Z,6.70
2022-12-03T03:35:40.422Z,7.20
2022-12-03T03:38:08.623Z,7.10
2022-12-03T03:40:35.852Z,7.87
2022-12-03T03:43:02.983Z,8.00
2022-12-03T03:45:30.014Z,7.30
2022-12-03T03:47:59.367Z,8.40
2022-12-03T03:50:29.560Z,9.37
2022-12-03T03:52:57.029Z,10.00
2022-12-03T03:55:24.407Z,10.33
2022-12-03T03:57:51.471Z,10.53
2022-12-03T04:00:18.687Z,11.10
2022-12-03T04:02:46.031Z,10.43
2022-12-03T04:05:19.111Z,10.93
2022-12-03T04:07:45.882Z,11.57
2022-12-03T04:10:33.117Z,11.83
2022-12-03T04:13:00.556Z,11.10
2022-12-03T04:15:27.945Z,10.97
2022-12-03T04:18:13.280Z,11.17
2022-12-03T04:20:40.250Z,11.40
2022-12-03T04:23:08.389Z,11.03
2022-12-03T04:25:53.556Z,11.27
2022-12-03T04:28:38.803Z,11.67
2022-12-03T04:31:25.691Z,11.27
2022-12-03T04:34:11.022Z,10.87
2022-12-03T04:36:38.284Z,11.23
2022-12-03T04:39:05.416Z,10.90
2022-12-03T04:41:32.241Z,10.83
2022-12-03T04:44:17.578Z,10.60
2022-12-03T04:46:44.466Z,11.70
2022-12-03T04:49:11.297Z,12.03
2022-12-03T04:51:38.129Z,11.27
2022-12-03T04:54:04.891Z,10.97
2022-12-03T04:56:32.318Z,11.47
2022-12-03T04:58:59.487Z,11.00
2022-12-03T05:01:26.357Z,11.37
2022-12-03T05:03:53.338Z,11.10
2022-12-03T05:06:20.407Z,10.87
2022-12-03T05:08:47.155Z,10.57
2022-12-03T05:11:14.150Z,10.90
2022-12-03T05:13:43.014Z,11.13
2022-12-03T05:16:10.630Z,10.87
2022-12-03T05:18:37.473Z,10.70
2022-12-03T05:21:04.486Z,11.47
2022-12-03T05:23:31.246Z,10.43
2022-12-03T05:25:58.206Z,10.43
2022-12-03T05:28:25.075Z,10.30
2022-12-03T05:31:06.256Z,10.57
2022-12-03T05:33:42.472Z,9.60
2022-12-03T05:36:18.145Z,9.80
2022-12-03T05:38:54.241Z,9.20
2022-12-03T05:41:39.519Z,9.87
2022-12-03T05:44:06.376Z,9.47
2022-12-03T05:46:33.646Z,10.30
2022-12-03T05:49:00.528Z,9.77
2022-12-03T05:51:27.549Z,9.97
2022-12-03T05:53:54.510Z,9.93
2022-12-03T05:56:21.615Z,10.47
2022-12-03T05:58:48.584Z,10.53
2022-12-03T06:01:15.838Z,10.93
2022-12-03T06:03:42.931Z,10.43
2022-12-03T06:06:10.070Z,10.80
2022-12-03T06:08:37.250Z,10.03
2022-12-03T06:11:04.188Z,10.07
2022-12-03T06:13:31.025Z,10.67
2022-12-03T06:15:57.892Z,10.73
2022-12-03T06:18:25.042Z,11.13
2022-12-03T06:20:51.954Z,10.10
2022-12-03T06:23:19.077Z,10.30
2022-12-03T06:25:46.326Z,10.00
2022-12-03T06:28:13.187Z,11.40
2022-12-03T06:30:40.088Z,10.37
2022-12-03T06:33:06.917Z,11.00
2022-12-03T06:35:33.772Z,11.47
2022-12-03T06:38:00.672Z,11.13
2022-12-03T06:40:27.599Z,11.20
2022-12-03T06:42:54.614Z,9.87
2022-12-03T06:45:21.545Z,10.23
2022-12-03T06:47:48.579Z,10.13
2022-12-03T06:50:15.353Z,10.90
2022-12-03T06:52:42.357Z,10.37
2022-12-03T06:55:10.077Z,10.47
2022-12-03T06:57:36.879Z,10.70
2022-12-03T07:00:06.565Z,11.63
2022-12-03T07:02:33.475Z,10.67
2022-12-03T07:05:00.629Z,11.13
2022-12-03T07:07:28.649Z,11.73
2022-12-03T07:09:55.877Z,11.17
2022-12-03T07:12:22.846Z,12.20
2022-12-03T07:14:49.804Z,11.23
2022-12-03T07:17:16.901Z,11.53
2022-12-03T07:19:43.987Z,12.70
2022-12-03T07:22:10.722Z,11.20
2022-12-03T07:24:37.653Z,11.50
2022-12-03T07:27:04.727Z,11.73
2022-12-03T07:29:31.588Z,11.07
2022-12-03T07:31:58.333Z,11.47
2022-12-03T07:34:25.320Z,11.23
2022-12-03T07:36:52.512Z,11.07
2022-12-03T07:39:19.247Z,11.03
2022-12-03T07:41:46.448Z,11.20
2022-12-03T07:44:14.695Z,45.43
2022-12-03T07:46:42.247Z,15.63
2022-12-03T07:49:09.753Z,13.97
2022-12-03T07:51:37.279Z,13.47
2022-12-03T07:54:05.297Z,12.37
2022-12-03T07:56:32.367Z,12.37
2022-12-03T07:58:59.243Z,12.77
2022-12-03T08:01:26.421Z,12.40
2022-12-03T08:03:53.359Z,11.30
2022-12-03T08:06:20.495Z,10.57
2022-12-03T08:08:47.568Z,12.17
2022-12-03T08:11:15.425Z,12.00
2022-12-03T08:13:42.980Z,12.03
2022-12-03T08:16:17.292Z,11.27
2022-12-03T08:18:45.370Z,13.63
2022-12-03T08:21:15.738Z,12.43
2022-12-03T08:23:42.871Z,12.70
2022-12-03T08:26:28.150Z,11.57
2022-12-03T08:28:55.035Z,11.40
2022-12-03T08:31:32.441Z,11.87
2022-12-03T08:34:35.614Z,11.97
2022-12-03T08:37:09.486Z,11.87
2022-12-03T08:39:44.524Z,12.63
2022-12-03T08:42:35.919Z,11.80
2022-12-03T08:45:32.674Z,11.93
2022-12-03T08:48:22.619Z,10.80
2022-12-03T08:50:50.349Z,10.97
2022-12-03T08:53:30.895Z,13.20
2022-12-03T08:56:00.903Z,13.20
2022-12-03T08:58:36.772Z,11.80
2022-12-03T09:01:41.823Z,11.70
2022-12-03T09:04:27.621Z,11.80
2022-12-03T09:06:55.219Z,13.07
2022-12-03T09:09:23.059Z,13.57
2022-12-03T09:11:50.678Z,11.17
2022-12-03T09:14:18.878Z,12.53
2022-12-03T09:16:46.075Z,12.20
2022-12-03T09:19:13.748Z,12.07
2022-12-03T09:24:48.399Z,12.23
2022-12-03T09:27:15.622Z,12.43
2022-12-03T09:29:42.561Z,16.13
2022-12-03T09:32:13.643Z,13.30
2022-12-03T09:34:44.133Z,12.27
2022-12-03T09:37:11.616Z,13.83
2022-12-03T09:39:41.696Z,11.30
2022-12-03T09:42:10.770Z,12.07
2022-12-03T09:44:38.610Z,12.27
2022-12-03T09:47:07.183Z,12.10
2022-12-03T09:49:37.592Z,12.00
2022-12-03T09:52:06.514Z,12.00
2022-12-03T09:54:34.781Z,11.47
2022-12-03T09:57:04.296Z,11.47
2022-12-03T09:59:33.388Z,12.57
2022-12-03T10:02:01.960Z,12.40
2022-12-03T10:04:30.178Z,11.83
2022-12-03T10:06:58.938Z,12.47
2022-12-03T10:09:29.345Z,12.13
2022-12-03T10:11:59.258Z,13.77
2022-12-03T10:14:27.278Z,13.83
2022-12-03T10:16:54.330Z,18.00
2022-12-03T10:19:32.084Z,12.07
2022-12-03T10:21:58.818Z,12.13
2022-12-03T10:24:29.882Z,11.77
2022-12-03T10:27:02.380Z,11.30
2022-12-03T10:29:34.971Z,12.53
2022-12-03T10:32:07.209Z,11.87
2022-12-03T10:34:39.483Z,17.43
2022-12-03T10:37:20.999Z,17.87
2022-12-03T10:40:08.644Z,22.33
2022-12-03T10:42:38.425Z,15.27
2022-12-03T10:45:23.435Z,15.47
2022-12-03T10:48:06.680Z,18.03
2022-12-03T10:50:35.246Z,14.73
2022-12-03T10:53:02.333Z,16.27
2022-12-03T10:55:38.581Z,14.13
2022-12-03T10:58:05.322Z,14.00
2022-12-03T11:00:32.133Z,13.50
2022-12-03T11:02:58.888Z,13.77
2022-12-03T11:05:27.547Z,13.80
2022-12-03T11:07:54.740Z,13.00
2022-12-03T11:10:23.358Z,14.07
2022-12-03T11:13:32.634Z,12.87
2022-12-03T11:16:05.783Z,13.50
2022-12-03T11:18:38.726Z,14.30
2022-12-03T11:21:11.441Z,14.13
2022-12-03T11:24:03.138Z,13.60
2022-12-03T11:26:29.758Z,13.20
2022-12-03T11:28:58.503Z,13.67
2022-12-03T11:31:37.472Z,15.07
2022-12-03T11:34:22.691Z,14.03
2022-12-03T11:37:11.704Z,14.00
2022-12-03T11:39:50.769Z,15.70
2022-12-03T11:42:26.750Z,15.90
2022-12-03T11:45:02.791Z,15.37
2022-12-03T11:47:59.618Z,17.47
2022-12-03T11:50:50.020Z,17.53
2022-12-03T11:53:27.216Z,15.00
2022-12-03T11:56:10.909Z,14.33
2022-12-03T11:58:42.649Z,14.40
2022-12-03T12:01:09.522Z,14.17
2022-12-03T12:03:48.909Z,15.00
2022-12-03T12:06:18.850Z,13.70
2022-12-03T12:08:51.958Z,14.37
2022-12-03T12:11:19.696Z,14.70
2022-12-03T12:13:55.670Z,13.77
2022-12-03T12:16:38.162Z,13.37
2022-12-03T12:19:31.554Z,14.17
2022-12-03T12:22:18.360Z,13.93
2022-12-03T12:24:47.723Z,13.73
2022-12-03T12:27:23.187Z,14.00
2022-12-03T12:30:01.356Z,12.97
2022-12-03T12:32:44.840Z,9.30
2022-12-03T12:35:17.707Z,13.87
2022-12-03T12:37:58.953Z,13.77
2022-12-03T12:40:30.537Z,13.33
2022-12-03T12:43:03.017Z,12.73
2022-12-03T12:45:37.167Z,14.37
2022-12-03T12:48:10.152Z,12.83
2022-12-03T12:50:37.892Z,14.00
2022-12-03T12:53:10.797Z,14.23
2022-12-03T12:55:41.317Z,11.60
2022-12-03T12:58:15.326Z,11.03
2022-12-03T13:00:58.411Z,9.73
2022-12-03T13:03:28.551Z,9.53
2022-12-03T13:05:57.833Z,11.63
2022-12-03T13:08:31.936Z,11.60
2022-12-03T13:11:02.941Z,11.70
2022-12-03T13:13:44.316Z,13.30
2022-12-03T13:16:28.176Z,13.23
2022-12-03T13:18:59.880Z,14.33
2022-12-03T13:22:10.360Z,12.37
2022-12-03T13:24:44.384Z,13.03
2022-12-03T13:27:17.510Z,11.40
2022-12-03T13:29:51.149Z,13.07
2022-12-03T13:32:27.870Z,12.67
2022-12-03T13:35:24.092Z,13.00
2022-12-03T13:37:50.889Z,12.10
2022-12-03T13:40:31.217Z,14.73
2022-12-03T13:42:58.903Z,13.53
2022-12-03T13:45:39.231Z,13.67
2022-12-03T13:48:18.242Z,14.73
2022-12-03T13:50:46.127Z,14.23
2022-12-03T13:53:29.880Z,12.90
2022-12-03T13:56:27.696Z,13.80
2022-12-03T13:58:56.172Z,15.73
2022-12-03T14:01:23.150Z,19.97
2022-12-03T14:03:50.697Z,18.43
2022-12-03T14:06:17.554Z,16.20
2022-12-03T14:08:44.583Z,15.10
2022-12-03T14:11:35.151Z,15.93
2022-12-03T14:14:02.201Z,17.10
2022-12-03T14:16:29.432Z,20.70
2022-12-03T14:18:57.220Z,21.67
2022-12-03T14:21:24.784Z,17.63
2022-12-03T14:23:51.938Z,17.07
2022-12-03T14:26:19.364Z,16.67
2022-12-03T14:28:46.210Z,17.27
2022-12-03T14:31:13.777Z,17.80
2022-12-03T14:33:40.959Z,16.97
2022-12-03T14:36:08.695Z,17.93
2022-12-03T14:38:35.583Z,17.30
2022-12-03T14:41:02.994Z,16.13
2022-12-03T14:43:30.499Z,16.57
2022-12-03T14:45:58.863Z,16.80
2022-12-03T14:48:27.736Z,18.13
2022-12-03T14:50:55.050Z,16.83
2022-12-03T14:53:27.084Z,16.23
2022-12-03T14:56:10.534Z,17.57
2022-12-03T14:58:37.829Z,16.40
2022-12-03T15:01:05.399Z,15.50
2022-12-03T15:03:32.323Z,15.87
2022-12-03T15:06:00.916Z,16.70
2022-12-03T15:08:29.397Z,16.90
2022-12-03T15:10:57.428Z,16.03
2022-12-03T15:13:24.777Z,17.23
2022-12-03T15:15:52.095Z,16.17
2022-12-03T15:18:19.434Z,21.57
2022-12-03T15:20:46.411Z,17.17
2022-12-03T15:23:14.724Z,16.53
2022-12-03T15:25:42.430Z,18.27
2022-12-03T15:28:10.371Z,16.00
2022-12-03T15:30:37.593Z,16.67
2022-12-03T15:33:05.420Z,18.37
2022-12-03T15:35:33.287Z,18.03
2022-12-03T15:38:01.226Z,18.43
2022-12-03T15:40:29.055Z,19.57
2022-12-03T15:42:56.757Z,21.30
2022-12-03T15:45:24.611Z,17.87
2022-12-03T15:47:51.331Z,18.17
2022-12-03T15:50:18.517Z,16.20
2022-12-03T15:52:45.649Z,15.93
2022-12-03T15:55:12.513Z,17.47
2022-12-03T15:57:39.593Z,18.93
2022-12-03T16:00:08.081Z,15.80
2022-12-03T16:02:35.053Z,16.43
2022-12-03T16:05:07.021Z,14.33
2022-12-03T16:07:33.910Z,18.23
2022-12-03T16:10:02.250Z,21.97
2022-12-03T16:12:29.627Z,25.30
2022-12-03T16:14:56.411Z,18.10
2022-12-03T16:17:24.789Z,21.27
2022-12-03T16:19:53.065Z,16.63
2022-12-03T16:22:20.946Z,15.23
2022-12-03T16:24:47.800Z,15.37
2022-12-03T16:27:14.824Z,16.10
2022-12-03T16:29:42.169Z,16.17
2022-12-03T16:32:09.632Z,18.23
2022-12-03T16:34:36.362Z,17.67
2022-12-03T16:37:04.791Z,17.00
2022-12-03T16:39:31.510Z,16.03
2022-12-03T16:41:58.280Z,15.77
2022-12-03T16:44:51.330Z,15.33
2022-12-03T16:47:18.044Z,14.07
2022-12-03T16:49:45.042Z,15.10
2022-12-03T16:52:12.519Z,14.00
2022-12-03T16:54:39.699Z,14.47
2022-12-03T16:57:06.777Z,15.60
2022-12-03T16:59:33.548Z,14.73
2022-12-03T17:02:00.382Z,13.80
2022-12-03T17:04:27.781Z,14.43
2022-12-03T17:06:54.767Z,14.47
2022-12-03T17:09:22.429Z,17.97
2022-12-03T17:11:51.616Z,16.40
2022-12-03T17:14:19.434Z,14.77
2022-12-03T17:16:50.837Z,13.53
2022-12-03T17:19:18.654Z,14.33
2022-12-03T17:21:45.613Z,13.70
2022-12-03T17:24:12.515Z,14.27
2022-12-03T17:26:41.869Z,14.40
2022-12-03T17:29:09.118Z,12.87
2022-12-03T17:31:41.681Z,13.80
2022-12-03T17:34:09.436Z,14.17
2022-12-03T17:36:42.956Z,14.43
2022-12-03T17:39:10.652Z,14.13
2022-12-03T17:41:37.691Z,13.73
2022-12-03T17:44:10.151Z,13.43
2022-12-03T17:46:38.846Z,13.70
2022-12-03T17:49:09.237Z,13.27
2022-12-03T17:51:37.190Z,14.30
2022-12-03T17:54:04.286Z,14.03
2022-12-03T17:56:31.488Z,14.27
2022-12-03T17:58:59.413Z,13.33
2022-12-03T18:01:26.560Z,15.33
2022-12-03T18:03:54.254Z,15.17
2022-12-03T18:06:22.425Z,14.33
2022-12-03T18:08:50.106Z,15.83
2022-12-03T18:11:17.446Z,15.53
2022-12-03T18:13:46.467Z,14.10
2022-12-03T18:16:15.162Z,15.00
2022-12-03T18:18:42.930Z,14.27
2022-12-03T18:21:12.083Z,15.73
2022-12-03T18:23:39.642Z,15.20
2022-12-03T18:26:07.348Z,15.10
2022-12-03T18:28:35.360Z,18.80
2022-12-03T18:31:02.486Z,17.57
2022-12-03T18:33:29.809Z,15.83
2022-12-03T18:35:58.213Z,17.57
2022-12-03T18:38:30.781Z,16.77
2022-12-03T18:40:58.119Z,19.40
2022-12-03T18:43:28.800Z,17.20
2022-12-03T18:45:56.153Z,15.83
2022-12-03T18:48:23.076Z,18.63
2022-12-03T18:50:51.235Z,16.80
2022-12-03T18:53:20.981Z,15.67
2022-12-03T18:55:49.174Z,16.07
2022-12-03T18:58:16.605Z,17.57
2022-12-03T19:00:43.675Z,14.90
2022-12-03T19:03:10.612Z,18.37
2022-12-03T19:05:38.635Z,38.57
2022-12-03T19:08:14.957Z,23.00
2022-12-03T19:10:43.115Z,20.33
2022-12-03T19:13:12.969Z,17.07
2022-12-03T19:15:40.869Z,17.27
2022-12-03T19:18:08.470Z,17.83
2022-12-03T19:20:36.537Z,17.57
2022-12-03T19:23:04.442Z,17.00
2022-12-03T19:25:31.262Z,17.40
2022-12-03T19:27:57.992Z,16.60
2022-12-03T19:30:24.783Z,15.23
2022-12-03T19:32:52.007Z,13.83
2022-12-03T19:35:26.575Z,13.07
2022-12-03T19:38:26.757Z,15.00
2022-12-03T19:40:59.584Z,13.37
2022-12-03T19:43:26.847Z,14.77
2022-12-03T19:45:54.898Z,14.83
2022-12-03T19:48:23.222Z,13.83
2022-12-03T19:51:07.860Z,14.63
2022-12-03T19:53:41.674Z,14.43
2022-12-03T19:56:14.249Z,14.77
2022-12-03T19:58:42.549Z,13.93
2022-12-03T20:01:18.604Z,14.27
2022-12-03T20:03:47.887Z,13.27
2022-12-03T20:06:17.089Z,11.00
2022-12-03T20:08:44.268Z,11.70
2022-12-03T20:11:19.842Z,11.80
2022-12-03T20:13:48.069Z,11.43
2022-12-03T20:16:16.455Z,10.93
2022-12-03T20:18:46.301Z,11.37
2022-12-03T20:21:15.090Z,9.73
2022-12-03T20:23:42.244Z,9.37
2022-12-03T20:26:14.487Z,10.30
2022-12-03T20:28:41.606Z,12.50
2022-12-03T20:31:13.454Z,11.70
2022-12-03T20:33:42.810Z,11.27
2022-12-03T20:36:10.993Z,10.53
2022-12-03T20:38:38.502Z,10.20
2022-12-03T20:41:13.373Z,10.97
2022-12-03T20:43:40.255Z,9.90
2022-12-03T20:46:19.946Z,10.60
2022-12-03T20:48:46.807Z,10.70
2022-12-03T20:51:16.686Z,10.30
2022-12-03T20:53:44.397Z,9.97
2022-12-03T20:56:16.308Z,11.10
2022-12-03T20:58:43.591Z,13.33
2022-12-03T21:01:22.519Z,11.90
2022-12-03T21:03:50.532Z,14.47
2022-12-03T21:06:18.272Z,14.50
2022-12-03T21:08:45.829Z,12.20
2022-12-03T21:11:16.290Z,13.13
2022-12-03T21:13:44.189Z,10.83
2022-12-03T21:16:15.781Z,12.90
2022-12-03T21:18:42.765Z,11.57
2022-12-03T21:21:11.884Z,11.30
2022-12-03T21:23:39.191Z,13.67
2022-12-03T21:26:08.809Z,14.27
2022-12-03T21:28:35.888Z,14.47
2022-12-03T21:31:05.072Z,15.40
2022-12-03T21:33:32.043Z,17.47
2022-12-03T21:35:59.430Z,17.03
2022-12-03T21:38:27.380Z,17.70
2022-12-03T21:40:54.628Z,17.27
2022-12-03T21:43:24.746Z,17.63
2022-12-03T21:45:51.805Z,15.87
2022-12-03T21:48:19.716Z,15.40
2022-12-03T21:50:57.074Z,15.50
2022-12-03T21:53:23.940Z,15.83
2022-12-03T21:55:50.761Z,16.13
2022-12-03T21:58:17.576Z,15.63
2022-12-03T22:00:44.286Z,15.13
2022-12-03T22:03:11.120Z,17.93
2022-12-03T22:05:38.599Z,21.80
2022-12-03T22:08:05.952Z,15.70
2022-12-03T22:10:33.002Z,16.57
2022-12-03T22:13:00.735Z,15.40
2022-12-03T22:15:28.091Z,14.77
2022-12-03T22:17:54.867Z,13.70
2022-12-03T22:20:21.850Z,14.27
2022-12-03T22:22:48.692Z,14.27
2022-12-03T22:25:15.814Z,14.97
2022-12-03T22:27:42.545Z,14.23
2022-12-03T22:30:09.514Z,14.57
2022-12-03T22:32:36.342Z,14.47
2022-12-03T22:35:03.256Z,15.47
2022-12-03T22:37:30.454Z,15.03
2022-12-03T22:39:57.654Z,15.10
2022-12-03T22:42:24.614Z,15.53
2022-12-03T22:44:51.364Z,15.60
2022-12-03T22:47:18.066Z,16.03
2022-12-03T22:49:45.063Z,15.37
2022-12-03T22:52:11.773Z,16.10
2022-12-03T22:54:38.782Z,15.17
2022-12-03T22:57:05.683Z,16.57
2022-12-03T22:59:32.654Z,18.07
2022-12-03T23:01:59.646Z,16.60
2022-12-03T23:04:26.533Z,17.17
2022-12-03T23:06:53.258Z,17.37
2022-12-03T23:09:20.744Z,17.00
2022-12-03T23:11:47.744Z,16.87
2022-12-03T23:14:14.608Z,17.00
2022-12-03T23:16:41.656Z,17.67
2022-12-03T23:19:08.594Z,17.87
2022-12-03T23:21:36.097Z,18.93
2022-12-03T23:24:04.811Z,18.60
2022-12-03T23:26:36.013Z,18.63
2022-12-03T23:29:04.516Z,18.90
2022-12-03T23:31:33.452Z,18.53
2022-12-03T23:34:00.480Z,18.47
2022-12-03T23:36:29.303Z,19.40
2022-12-03T23:38:56.239Z,19.57
2022-12-03T23:41:24.331Z,19.37
2022-12-03T23:43:51.646Z,17.77
2022-12-03T23:46:21.877Z,19.57
2022-12-03T23:48:48.989Z,19.83
2022-12-03T23:51:24.034Z,19.63
2022-12-03T23:53:53.129Z,19.27
2022-12-03T23:56:26.751Z,19.47
2022-12-03T23:58:53.876Z,19.23
